Time;durP1;ratioP1;P1;durP2;ratioP2;P2;SDS_P1;SDS_P2;PMS_P1;PMS_P2;Temp;Humidity;BMP_temperature;BMP_pressure;BME280_temperature;BME280_humidity;BME280_pressure;Samples;Min_cycle;Max_cycle;Signal;HPM_P1;HPM_P2
2021/06/28 00:00:41;;;;;;;7.90;5.57;;;;;;;;;;5073380;28;20024;-73
2021/06/28 00:03:06;;;;;;;6.97;5.32;;;;;;;;;;5092000;28;20111;-74
2021/06/28 00:05:32;;;;;;;12.85;5.70;;;;;;;;;;5093707;28;20107;-74
2021/06/28 00:07:57;;;;;;;6.10;5.03;;;;;;;;;;5080156;28;20081;-74
2021/06/28 00:10:27;;;;;;;7.63;5.03;;;;;;;;;;5073329;28;20490;-73
2021/06/28 00:12:54;;;;;;;8.05;5.03;;;;;;;;;;5073398;28;20028;-73
2021/06/28 00:15:23;;;;;;;6.63;5.07;;;;;;;;;;5073480;28;20047;-73
2021/06/28 00:18:02;;;;;;;7.80;5.40;;;;;;;;;;5073567;28;20025;-73
2021/06/28 00:20:27;;;;;;;6.10;5.03;;;;;;;;;;5073408;28;20052;-74
2021/06/28 00:22:53;;;;;;;8.85;4.90;;;;;;;;;;5072600;28;20392;-74
2021/06/28 00:25:27;;;;;;;5.88;4.10;;;;;;;;;;5052759;28;20397;-74
2021/06/28 00:27:52;;;;;;;;;;;;;;;;;;5053835;28;20083;-73
2021/06/28 00:30:19;;;;;;;5.72;3.97;;;;;;;;;;5062703;28;20330;-75
2021/06/28 00:32:46;;;;;;;6.65;5.20;;;;;;;;;;5072819;28;20514;-74
2021/06/28 00:35:12;;;;;;;7.93;4.63;;;;;;;;;;5072665;28;20035;-74
2021/06/28 00:37:38;;;;;;;8.82;5.05;;;;;;;;;;5072589;28;20028;-74
2021/06/28 00:40:15;;;;;;;9.05;5.63;;;;;;;;;;5061899;28;20376;-74
2021/06/28 00:42:41;;;;;;;9.43;5.18;;;;;;;;;;5054944;28;20024;-74
2021/06/28 00:45:25;;;;;;;7.43;4.72;;;;;;;;;;5072149;28;20032;-74
2021/06/28 00:47:52;;;;;;;;;;;;;;;;;;5072951;28;20035;-74
2021/06/28 00:50:27;;;;;;;8.57;3.88;;;;;;;;;;5072662;28;19908;-74
2021/06/28 00:52:57;;;;;;;7.07;5.25;;;;;;;;;;5072880;28;20028;-74
2021/06/28 00:55:22;;;;;;;6.60;4.90;;;;;;;;;;5071813;28;20016;-74
2021/06/28 00:58:05;;;;;;;8.48;6.15;;;;;;;;;;5038328;28;20029;-75
2021/06/28 01:00:31;;;;;;;8.15;6.00;;;;;;;;;;5052713;28;20025;-74
2021/06/28 01:02:57;;;;;;;7.18;5.05;;;;;;;;;;5053111;28;20039;-75
2021/06/28 01:05:32;;;;;;;8.05;5.22;;;;;;;;;;5072996;28;20025;-74
2021/06/28 01:07:59;;;;;;;8.10;5.13;;;;;;;;;;5072092;28;20029;-74
2021/06/28 01:10:27;;;;;;;8.38;5.07;;;;;;;;;;5070577;28;20032;-74
2021/06/28 01:12:53;;;;;;;8.32;5.43;;;;;;;;;;5052792;28;20083;-74
2021/06/28 01:15:19;;;;;;;7.25;4.55;;;;;;;;;;5052805;28;20032;-75
2021/06/28 01:17:46;;;;;;;7.03;4.30;;;;;;;;;;5052771;28;20063;-74
2021/06/28 01:20:15;;;;;;;7.22;5.00;;;;;;;;;;5034867;28;20064;-74
2021/06/28 01:22:45;;;;;;;6.03;5.15;;;;;;;;;;5052644;28;20029;-74
2021/06/28 01:25:28;;;;;;;8.75;5.90;;;;;;;;;;5085164;28;20042;-74
2021/06/28 01:27:54;;;;;;;8.20;5.60;;;;;;;;;;5092608;28;20548;-74
2021/06/28 01:30:25;;;;;;;12.30;6.13;;;;;;;;;;5092780;28;20022;-75
2021/06/28 01:32:51;;;;;;;7.95;6.13;;;;;;;;;;5092595;28;20035;-75
2021/06/28 01:35:17;;;;;;;9.35;6.28;;;;;;;;;;5092778;28;20023;-75
2021/06/28 01:37:43;;;;;;;8.98;5.75;;;;;;;;;;5074647;28;20394;-75
2021/06/28 01:40:12;;;;;;;7.43;5.10;;;;;;;;;;5072688;28;20020;-74
2021/06/28 01:42:39;;;;;;;9.88;6.03;;;;;;;;;;5072529;28;20025;-74
2021/06/28 01:45:09;;;;;;;12.45;5.40;;;;;;;;;;5073396;28;20484;-75
2021/06/28 01:47:54;;;;;;;10.75;5.20;;;;;;;;;;5076265;28;20475;-75
2021/06/28 01:50:22;;;;;;;8.35;4.68;;;;;;;;;;5076419;28;20032;-74
2021/06/28 01:52:48;;;;;;;8.57;5.35;;;;;;;;;;5076351;28;20040;-75
2021/06/28 01:55:16;;;;;;;7.47;5.13;;;;;;;;;;5076199;28;20553;-74
2021/06/28 01:57:47;;;;;;;7.97;4.68;;;;;;;;;;5075871;28;20034;-75
2021/06/28 02:00:16;;;;;;;10.40;5.72;;;;;;;;;;5061812;28;20020;-74
2021/06/28 02:03:01;;;;;;;10.80;5.55;;;;;;;;;;5078062;28;20049;-75
2021/06/28 02:05:29;;;;;;;9.07;6.03;;;;;;;;;;5096199;28;20016;-75
2021/06/28 02:07:54;;;;;;;10.30;5.93;;;;;;;;;;5078092;28;20494;-74
2021/06/28 02:10:29;;;;;;;8.95;6.35;;;;;;;;;;5096389;28;20020;-74
2021/06/28 02:12:54;;;;;;;12.15;5.85;;;;;;;;;;5096154;28;20035;-71
2021/06/28 02:15:25;;;;;;;10.65;6.25;;;;;;;;;;5091604;28;20016;-71
2021/06/28 02:18:01;;;;;;;9.70;6.00;;;;;;;;;;5075317;28;20016;-74
2021/06/28 02:20:28;;;;;;;11.10;5.93;;;;;;;;;;5075667;28;20032;-74
2021/06/28 02:23:22;;;;;;;9.15;6.10;;;;;;;;;;5075472;28;20034;-74
2021/06/28 02:26:03;;;;;;;8.98;5.18;;;;;;;;;;5052864;28;20124;-75
2021/06/28 02:28:33;;;;;;;7.03;4.95;;;;;;;;;;5055037;28;20040;-74
2021/06/28 02:31:00;;;;;;;12.82;5.57;;;;;;;;;;5055082;28;20035;-74
2021/06/28 02:33:26;;;;;;;23.13;8.05;;;;;;;;;;5057386;28;20464;-75
2021/06/28 02:35:52;;;;;;;16.95;8.25;;;;;;;;;;5074551;28;20031;-75
2021/06/28 02:38:18;;;;;;;22.20;8.77;;;;;;;;;;5075074;28;20035;-75
2021/06/28 02:40:43;;;;;;;20.08;7.88;;;;;;;;;;5074788;28;20028;-74
2021/06/28 02:43:10;;;;;;;17.05;7.00;;;;;;;;;;5074558;28;20020;-75
2021/06/28 02:45:36;;;;;;;17.98;8.25;;;;;;;;;;5074634;28;20479;-75
2021/06/28 02:48:10;;;;;;;18.30;8.68;;;;;;;;;;5074601;28;20086;-75
2021/06/28 02:50:35;;;;;;;17.30;8.75;;;;;;;;;;5074464;28;20029;-75
2021/06/28 02:53:16;;;;;;;16.60;9.18;;;;;;;;;;5074425;28;20494;-75
2021/06/28 02:55:43;;;;;;;14.00;8.82;;;;;;;;;;5073374;28;20020;-75
2021/06/28 02:58:09;;;;;;;16.15;8.68;;;;;;;;;;5073865;28;20093;-75
2021/06/28 03:00:34;;;;;;;28.50;10.85;;;;;;;;;;5074205;28;20032;-75
2021/06/28 03:03:00;;;;;;;143.55;12.93;;;;;;;;;;5074799;28;20043;-75
2021/06/28 03:05:26;;;;;;;47.38;11.88;;;;;;;;;;5056350;28;20043;-75
2021/06/28 03:08:07;;;;;;;54.53;11.38;;;;;;;;;;5064054;28;20507;-75
2021/06/28 03:10:34;;;;;;;26.70;10.02;;;;;;;;;;5074659;28;20360;-75
2021/06/28 03:12:59;;;;;;;47.08;11.60;;;;;;;;;;5056583;28;20029;-75
2021/06/28 03:15:32;;;;;;;21.23;10.13;;;;;;;;;;5071080;28;20097;-75
2021/06/28 03:17:57;;;;;;;44.35;10.88;;;;;;;;;;5074278;28;20032;-75
2021/06/28 03:20:23;;;;;;;46.03;11.38;;;;;;;;;;5074316;28;20028;-75
2021/06/28 03:22:48;;;;;;;41.58;10.45;;;;;;;;;;5074154;28;20021;-75
2021/06/28 03:25:21;;;;;;;16.35;10.27;;;;;;;;;;5066843;28;20132;-76
2021/06/28 03:27:47;;;;;;;13.90;10.27;;;;;;;;;;5074166;28;20029;-75
2021/06/28 03:30:15;;;;;;;19.13;11.13;;;;;;;;;;5074143;28;20055;-75
2021/06/28 03:32:41;;;;;;;18.40;11.50;;;;;;;;;;5073862;28;20047;-75
2021/06/28 03:35:16;;;;;;;14.85;9.60;;;;;;;;;;5074295;28;20098;-76
2021/06/28 03:37:41;;;;;;;15.18;9.75;;;;;;;;;;5073873;28;20031;-76
2021/06/28 03:40:09;;;;;;;16.10;9.50;;;;;;;;;;5073856;28;20029;-75
2021/06/28 03:42:37;;;;;;;16.77;9.35;;;;;;;;;;5073651;28;20038;-75
2021/06/28 03:45:07;;;;;;;14.85;8.85;;;;;;;;;;5072446;28;20029;-75
2021/06/28 03:47:33;;;;;;;16.27;9.98;;;;;;;;;;5062205;28;20059;-75
2021/06/28 03:49:58;;;;;;;18.83;11.98;;;;;;;;;;5053682;28;20056;-75
2021/06/28 03:52:24;;;;;;;20.88;11.77;;;;;;;;;;5053511;28;20160;-75
2021/06/28 03:55:16;;;;;;;22.75;11.63;;;;;;;;;;5065386;28;20024;-75
2021/06/28 03:57:42;;;;;;;24.13;12.15;;;;;;;;;;5073216;28;20451;-74
2021/06/28 04:00:24;;;;;;;21.88;11.50;;;;;;;;;;5072395;28;20064;-74
2021/06/28 04:02:51;;;;;;;18.25;10.63;;;;;;;;;;5073348;28;20033;-74
2021/06/28 04:05:22;;;;;;;17.63;10.30;;;;;;;;;;5066213;28;20029;-73
2021/06/28 04:07:48;;;;;;;15.23;10.23;;;;;;;;;;5073051;28;20475;-73
2021/06/28 04:10:15;;;;;;;19.38;10.70;;;;;;;;;;5073253;28;20483;-73
2021/06/28 04:12:41;;;;;;;22.20;11.65;;;;;;;;;;5073324;28;20082;-73
2021/06/28 04:15:16;;;;;;;18.02;10.25;;;;;;;;;;5072869;28;20032;-73
2021/06/28 04:17:45;;;;;;;21.15;10.38;;;;;;;;;;5073104;28;20039;-74
2021/06/28 04:20:13;;;;;;;18.17;10.75;;;;;;;;;;5073061;28;20024;-74
2021/06/28 04:22:50;;;;;;;20.80;11.20;;;;;;;;;;5072924;28;20028;-74
2021/06/28 04:25:38;;;;;;;20.02;11.40;;;;;;;;;;5074322;28;20079;-74
2021/06/28 04:28:04;;;;;;;21.08;11.80;;;;;;;;;;5073028;28;20032;-74
2021/06/28 04:30:30;;;;;;;21.95;12.10;;;;;;;;;;5076332;28;20103;-75
2021/06/28 04:32:56;;;;;;;27.75;14.02;;;;;;;;;;5074901;28;20019;-74
2021/06/28 04:35:24;;;;;;;22.27;13.60;;;;;;;;;;5084275;28;20028;-75
2021/06/28 04:37:51;;;;;;;18.55;12.23;;;;;;;;;;5087735;28;20034;-75
2021/06/28 04:40:21;;;;;;;17.08;11.85;;;;;;;;;;5090908;28;20455;-75
2021/06/28 04:42:48;;;;;;;17.35;11.65;;;;;;;;;;5072696;28;20100;-75
2021/06/28 04:45:14;;;;;;;14.52;10.82;;;;;;;;;;5083340;28;20383;-75
2021/06/28 04:47:40;;;;;;;15.25;11.18;;;;;;;;;;5089936;28;20032;-75
2021/06/28 04:50:07;;;;;;;15.15;10.73;;;;;;;;;;5074180;28;20024;-75
2021/06/28 04:52:35;;;;;;;15.30;10.70;;;;;;;;;;5092565;28;20077;-75
2021/06/28 04:55:02;;;;;;;10.55;8.30;;;;;;;;;;5093033;28;20467;-75
2021/06/28 04:57:27;;;;;;;11.27;7.82;;;;;;;;;;5087262;28;20020;-75
2021/06/28 04:59:53;;;;;;;10.82;8.23;;;;;;;;;;5092158;28;20502;-77
2021/06/28 05:02:19;;;;;;;12.20;9.65;;;;;;;;;;5084029;28;20043;-78
2021/06/28 05:04:47;;;;;;;9.88;7.80;;;;;;;;;;5084698;28;20429;-77
2021/06/28 05:07:18;;;;;;;7.82;6.82;;;;;;;;;;5086316;28;20062;-74
2021/06/28 05:09:45;;;;;;;10.10;7.40;;;;;;;;;;5072021;28;20020;-76
2021/06/28 05:12:12;;;;;;;10.02;7.53;;;;;;;;;;5071909;28;20040;-75
2021/06/28 05:14:39;;;;;;;9.65;6.78;;;;;;;;;;5072791;28;20053;-76
2021/06/28 05:17:05;;;;;;;9.25;6.82;;;;;;;;;;5078317;28;20063;-76
2021/06/28 05:19:30;;;;;;;8.38;6.28;;;;;;;;;;5092560;28;20379;-76
2021/06/28 05:21:58;;;;;;;8.02;7.07;;;;;;;;;;5097052;28;20023;-76
2021/06/28 05:25:19;;;;;;;8.68;6.72;;;;;;;;;;5096260;28;20090;-75
2021/06/28 05:27:44;;;;;;;8.13;6.75;;;;;;;;;;5096366;28;20028;-76
2021/06/28 05:30:19;;;;;;;9.15;6.25;;;;;;;;;;5096269;28;20073;-75
2021/06/28 05:32:44;;;;;;;5.60;4.57;;;;;;;;;;5091000;28;20020;-76
2021/06/28 05:35:10;;;;;;;7.50;4.90;;;;;;;;;;5079329;28;20036;-76
2021/06/28 05:37:37;;;;;;;6.78;5.20;;;;;;;;;;5095758;28;20090;-76
2021/06/28 05:40:05;;;;;;;7.03;5.03;;;;;;;;;;5096115;28;20020;-76
2021/06/28 05:42:30;;;;;;;6.18;4.40;;;;;;;;;;5094413;28;20039;-76
2021/06/28 05:44:57;;;;;;;7.38;4.35;;;;;;;;;;5093566;28;20024;-76
2021/06/28 05:47:23;;;;;;;5.40;4.53;;;;;;;;;;5096391;28;20089;-76
2021/06/28 05:49:49;;;;;;;6.57;4.68;;;;;;;;;;5095081;28;20729;-76
2021/06/28 05:52:20;;;;;;;5.53;4.30;;;;;;;;;;5095083;28;20043;-76
2021/06/28 05:54:46;;;;;;;4.90;3.70;;;;;;;;;;5077783;28;20039;-75
2021/06/28 05:57:12;;;;;;;5.55;4.40;;;;;;;;;;5095584;28;20024;-76
2021/06/28 05:59:43;;;;;;;9.10;4.05;;;;;;;;;;5095196;28;20486;-75
2021/06/28 06:02:08;;;;;;;5.55;4.18;;;;;;;;;;5095745;28;20020;-75
2021/06/28 06:04:34;;;;;;;5.95;4.22;;;;;;;;;;5091500;28;20020;-75
2021/06/28 06:06:59;;;;;;;7.88;4.10;;;;;;;;;;5090375;28;20054;-75
2021/06/28 06:09:24;;;;;;;6.57;4.03;;;;;;;;;;5095270;28;20024;-75
2021/06/28 06:11:51;;;;;;;5.45;3.83;;;;;;;;;;5095058;28;20024;-75
2021/06/28 06:14:17;;;;;;;5.13;4.05;;;;;;;;;;5090340;28;20032;-75
2021/06/28 06:16:42;;;;;;;5.50;3.97;;;;;;;;;;5089429;28;20032;-75
2021/06/28 06:19:08;;;;;;;4.53;3.65;;;;;;;;;;5093918;28;20028;-75
2021/06/28 06:21:34;;;;;;;8.02;3.50;;;;;;;;;;5083746;28;20016;-77
2021/06/28 06:24:06;;;;;;;5.68;3.75;;;;;;;;;;5091793;28;20159;-75
2021/06/28 06:26:31;;;;;;;4.30;3.60;;;;;;;;;;5075454;28;20031;-75
2021/06/28 06:28:57;;;;;;;5.63;3.53;;;;;;;;;;5076002;28;20103;-75
2021/06/28 06:31:22;;;;;;;5.13;3.70;;;;;;;;;;5075266;28;20417;-75
2021/06/28 06:33:56;;;;;;;4.38;3.42;;;;;;;;;;5075256;28;20036;-75
2021/06/28 06:36:21;;;;;;;5.55;3.55;;;;;;;;;;5075604;28;20115;-75
2021/06/28 06:38:47;;;;;;;4.25;3.50;;;;;;;;;;5075532;28;20059;-75
2021/06/28 06:41:13;;;;;;;5.32;3.60;;;;;;;;;;5069386;28;20029;-75
2021/06/28 06:43:39;;;;;;;4.88;3.70;;;;;;;;;;5072525;28;20071;-75
2021/06/28 06:46:05;;;;;;;3.97;3.38;;;;;;;;;;5073689;28;20419;-76
2021/06/28 06:48:30;;;;;;;8.65;3.85;;;;;;;;;;5067607;28;20079;-77
2021/06/28 06:51:03;;;;;;;3.90;3.45;;;;;;;;;;5036926;28;20021;-76
2021/06/28 06:53:29;;;;;;;4.10;3.55;;;;;;;;;;5074169;28;20369;-76
2021/06/28 06:55:54;;;;;;;4.50;3.33;;;;;;;;;;5074144;28;20035;-75
2021/06/28 06:58:20;;;;;;;3.88;3.30;;;;;;;;;;5071995;28;20032;-77
2021/06/28 07:00:47;;;;;;;4.78;3.67;;;;;;;;;;5071513;28;20086;-76
2021/06/28 07:03:12;;;;;;;5.03;3.60;;;;;;;;;;5073581;28;20065;-76
2021/06/28 07:05:47;;;;;;;5.60;3.72;;;;;;;;;;5072226;28;20103;-75
2021/06/28 07:08:15;;;;;;;4.30;3.60;;;;;;;;;;5061691;28;20032;-75
2021/06/28 07:10:43;;;;;;;5.63;3.42;;;;;;;;;;5059724;28;20028;-75
2021/06/28 07:13:09;;;;;;;5.07;3.63;;;;;;;;;;5074523;28;20036;-74
2021/06/28 07:15:42;;;;;;;3.55;3.22;;;;;;;;;;5054750;28;20053;-75
2021/06/28 07:18:07;;;;;;;3.80;3.38;;;;;;;;;;5073245;28;20085;-74
2021/06/28 07:20:33;;;;;;;4.70;3.65;;;;;;;;;;5066955;28;20032;-74
2021/06/28 07:22:59;;;;;;;3.65;3.25;;;;;;;;;;5062786;28;20023;-76
2021/06/28 07:25:25;;;;;;;5.63;3.47;;;;;;;;;;5072671;28;20119;-75
2021/06/28 07:27:52;;;;;;;4.10;3.70;;;;;;;;;;5072321;28;20032;-74
2021/06/28 07:30:22;;;;;;;5.15;3.70;;;;;;;;;;5073198;28;20448;-76
2021/06/28 07:32:49;;;;;;;4.82;3.25;;;;;;;;;;5074337;28;20027;-75
2021/06/28 07:35:22;;;;;;;3.90;3.47;;;;;;;;;;5074237;28;20510;-74
2021/06/28 07:37:48;;;;;;;5.15;3.33;;;;;;;;;;5073218;28;20025;-74
2021/06/28 07:40:17;;;;;;;5.75;3.38;;;;;;;;;;5067294;28;20056;-76
2021/06/28 07:42:42;;;;;;;4.18;3.15;;;;;;;;;;5053654;28;20428;-78
2021/06/28 07:45:09;;;;;;;4.38;3.05;;;;;;;;;;5053657;28;20073;-76
2021/06/28 07:47:35;;;;;;;4.80;3.35;;;;;;;;;;5046913;28;20043;-75
2021/06/28 07:50:05;;;;;;;4.35;3.28;;;;;;;;;;5073103;28;20123;-74
2021/06/28 07:52:30;;;;;;;8.70;3.30;;;;;;;;;;5069483;28;20032;-75
2021/06/28 07:55:26;;;;;;;5.30;2.97;;;;;;;;;;5073350;28;20503;-75
2021/06/28 07:57:52;;;;;;;4.45;3.03;;;;;;;;;;5073652;28;20452;-75
2021/06/28 08:00:27;;;;;;;3.72;3.33;;;;;;;;;;5070164;28;20033;-77
2021/06/28 08:02:53;;;;;;;3.90;3.10;;;;;;;;;;5067653;28;20093;-73
2021/06/28 08:05:18;;;;;;;3.72;3.20;;;;;;;;;;5072287;28;20032;-73
2021/06/28 08:07:44;;;;;;;5.35;3.40;;;;;;;;;;5064654;28;20029;-72
2021/06/28 08:10:13;;;;;;;3.90;3.00;;;;;;;;;;5068409;28;20024;-73
2021/06/28 08:12:41;;;;;;;4.20;3.17;;;;;;;;;;5072968;28;20123;-72
2021/06/28 08:15:07;;;;;;;7.65;3.50;;;;;;;;;;5061058;28;20387;-74
2021/06/28 08:17:33;;;;;;;4.22;3.13;;;;;;;;;;5047693;28;20032;-73
2021/06/28 08:19:58;;;;;;;5.05;3.30;;;;;;;;;;5068610;28;20028;-72
2021/06/28 08:22:24;;;;;;;4.28;3.38;;;;;;;;;;5072268;28;20028;-75
2021/06/28 08:25:06;;;;;;;3.90;3.08;;;;;;;;;;5078857;28;20048;-74
2021/06/28 08:27:32;;;;;;;5.45;3.53;;;;;;;;;;5073408;28;20043;-73
2021/06/28 08:30:07;;;;;;;5.85;3.80;;;;;;;;;;5073082;28;20379;-71
2021/06/28 08:32:32;;;;;;;5.32;3.80;;;;;;;;;;5067811;28;20028;-73
2021/06/28 08:35:00;;;;;;;5.10;4.30;;;;;;;;;;5072539;28;20033;-76
2021/06/28 08:37:27;;;;;;;4.50;4.03;;;;;;;;;;5084740;28;20070;-73
2021/06/28 08:40:06;;;;;;;5.15;4.65;;;;;;;;;;5064747;28;20025;-74
2021/06/28 08:42:31;;;;;;;5.03;4.30;;;;;;;;;;5074286;28;20111;-75
2021/06/28 08:45:22;;;;;;;5.72;4.07;;;;;;;;;;5072617;28;20116;-74
2021/06/28 08:47:48;;;;;;;5.28;3.92;;;;;;;;;;5070000;28;20055;-73
2021/06/28 08:50:14;;;;;;;6.22;4.18;;;;;;;;;;5070210;28;20028;-72
2021/06/28 08:52:41;;;;;;;4.50;3.67;;;;;;;;;;5071738;28;20058;-74
2021/06/28 08:55:09;;;;;;;4.40;3.33;;;;;;;;;;5073841;28;20036;-72
2021/06/28 08:57:35;;;;;;;4.75;3.97;;;;;;;;;;5075520;28;20067;-74
2021/06/28 09:00:15;;;;;;;3.72;3.13;;;;;;;;;;5086359;28;20062;-73
2021/06/28 09:02:52;;;;;;;4.75;3.60;;;;;;;;;;5065264;28;20119;-77
2021/06/28 09:05:19;;;;;;;4.95;3.78;;;;;;;;;;5061394;28;20052;-76
2021/06/28 09:07:47;;;;;;;5.72;3.60;;;;;;;;;;5080810;28;20020;-76
2021/06/28 09:10:34;;;;;;;5.95;3.15;;;;;;;;;;5085004;28;20039;-75
2021/06/28 09:13:35;;;;;;;5.70;2.90;;;;;;;;;;5097210;28;20020;-76
2021/06/28 09:16:30;;;;;;;6.30;3.53;;;;;;;;;;5077256;28;20379;-76
2021/06/28 09:19:06;;;;;;;4.63;2.95;;;;;;;;;;5072361;28;20050;-73
2021/06/28 09:21:40;;;;;;;3.05;2.65;;;;;;;;;;5074830;28;20110;-74
2021/06/28 09:24:23;;;;;;;7.47;3.10;;;;;;;;;;5041926;28;20142;-76
2021/06/28 09:26:48;;;;;;;3.92;2.95;;;;;;;;;;5065367;28;20031;-74
2021/06/28 09:29:15;;;;;;;4.57;3.20;;;;;;;;;;5090202;28;20024;-74
2021/06/28 09:31:43;;;;;;;4.22;3.40;;;;;;;;;;5079385;28;20034;-75
2021/06/28 09:34:25;;;;;;;4.15;2.80;;;;;;;;;;5095924;28;20485;-74
2021/06/28 09:36:54;;;;;;;3.13;2.67;;;;;;;;;;5091609;28;20035;-74
2021/06/28 09:39:28;;;;;;;3.53;3.08;;;;;;;;;;5091268;28;20074;-74
2021/06/28 09:42:07;;;;;;;7.10;3.83;;;;;;;;;;5086192;28;20041;-74
2021/06/28 09:44:37;;;;;;;3.63;3.00;;;;;;;;;;5082338;28;20024;-72
2021/06/28 09:47:14;;;;;;;5.55;3.35;;;;;;;;;;5078834;28;20024;-74
2021/06/28 09:50:00;;;;;;;8.68;3.10;;;;;;;;;;5094752;28;20028;-73
2021/06/28 09:52:39;;;;;;;5.68;3.63;;;;;;;;;;5090374;28;20478;-72
2021/06/28 09:55:25;;;;;;;4.80;3.45;;;;;;;;;;5074980;28;20028;-71
2021/06/28 09:58:12;;;;;;;4.28;3.75;;;;;;;;;;5082597;28;20517;-73
2021/06/28 10:00:42;;;;;;;4.65;3.90;;;;;;;;;;5079560;28;20345;-74
2021/06/28 10:03:35;;;;;;;7.80;3.63;;;;;;;;;;5091447;28;20055;-73
2021/06/28 10:06:08;;;;;;;3.95;3.42;;;;;;;;;;5079903;28;20024;-73
2021/06/28 10:08:37;;;;;;;5.68;3.95;;;;;;;;;;5084352;28;20016;-73
2021/06/28 10:11:21;;;;;;;4.47;3.25;;;;;;;;;;5095641;28;20039;-72
2021/06/28 10:13:51;;;;;;;4.80;3.72;;;;;;;;;;5094700;28;20024;-75
2021/06/28 10:16:19;;;;;;;5.25;4.00;;;;;;;;;;5095584;28;20360;-76
2021/06/28 10:18:46;;;;;;;5.57;4.05;;;;;;;;;;5091365;28;20047;-73
2021/06/28 10:21:12;;;;;;;4.80;3.72;;;;;;;;;;5082165;28;20031;-74
2021/06/28 10:23:38;;;;;;;5.85;4.10;;;;;;;;;;5083802;28;20055;-75
2021/06/28 10:26:06;;;;;;;4.35;3.67;;;;;;;;;;5075717;28;20059;-75
2021/06/28 10:28:36;;;;;;;5.47;3.50;;;;;;;;;;5088593;28;20024;-75
2021/06/28 10:31:06;;;;;;;6.30;3.95;;;;;;;;;;5095837;28;20035;-75
2021/06/28 10:33:52;;;;;;;3.67;3.28;;;;;;;;;;5095573;28;20028;-74
2021/06/28 10:36:19;;;;;;;3.85;3.30;;;;;;;;;;5080899;28;20028;-74
2021/06/28 10:38:45;;;;;;;4.70;3.50;;;;;;;;;;5073876;28;20024;-75
2021/06/28 10:41:11;;;;;;;4.93;3.67;;;;;;;;;;5080199;28;20024;-75
2021/06/28 10:43:38;;;;;;;3.67;2.70;;;;;;;;;;5095238;28;20024;-75
2021/06/28 10:46:08;;;;;;;5.35;3.20;;;;;;;;;;5090686;28;20016;-74
2021/06/28 10:48:49;;;;;;;4.72;3.60;;;;;;;;;;5084292;28;20429;-74
2021/06/28 10:51:19;;;;;;;3.50;3.20;;;;;;;;;;5095257;28;20016;-75
2021/06/28 10:53:54;;;;;;;4.00;3.50;;;;;;;;;;5086750;28;20024;-75
2021/06/28 10:56:30;;;;;;;4.57;3.30;;;;;;;;;;5089979;28;20047;-76
2021/06/28 11:02:19;;;;;;;3.58;3.20;;;;;;;;;;5092192;28;20122;-77
2021/06/28 11:04:55;;;;;;;3.97;3.03;;;;;;;;;;5080526;28;20036;-73
2021/06/28 11:07:21;;;;;;;3.75;3.20;;;;;;;;;;5092548;28;20028;-73
2021/06/28 11:09:47;;;;;;;4.90;3.30;;;;;;;;;;5080030;28;20028;-77
2021/06/28 11:12:21;;;;;;;4.90;3.00;;;;;;;;;;5092633;28;20038;-72
2021/06/28 11:14:53;;;;;;;3.83;3.05;;;;;;;;;;5094862;28;20464;-72
2021/06/28 11:17:38;;;;;;;5.68;3.58;;;;;;;;;;5093753;28;20125;-76
2021/06/28 11:20:06;;;;;;;4.03;2.65;;;;;;;;;;5079332;28;20035;-72
2021/06/28 11:22:38;;;;;;;3.80;3.08;;;;;;;;;;5094803;28;20333;-73
2021/06/28 11:25:42;;;;;;;4.32;2.67;;;;;;;;;;5094810;28;20048;-70
2021/06/28 11:28:11;;;;;;;3.92;3.20;;;;;;;;;;5077688;28;20033;-72
2021/06/28 11:31:03;;;;;;;3.35;2.60;;;;;;;;;;5086838;28;20383;-73
2021/06/28 11:33:35;;;;;;;5.60;2.70;;;;;;;;;;5093736;28;20489;-72
2021/06/28 11:36:01;;;;;;;4.70;2.80;;;;;;;;;;5089137;28;20097;-75
2021/06/28 11:38:42;;;;;;;3.78;2.70;;;;;;;;;;5094915;28;20264;-74
2021/06/28 11:41:10;;;;;;;3.13;2.25;;;;;;;;;;5090488;28;20028;-75
2021/06/28 11:43:43;;;;;;;2.65;2.42;;;;;;;;;;5094204;28;20024;-71
2021/06/28 11:46:10;;;;;;;;;;;;;;;;;;5093304;28;20021;-72
2021/06/28 11:48:39;;;;;;;2.83;1.90;;;;;;;;;;5094155;28;19916;-73
2021/06/28 11:51:18;;;;;;;2.95;2.15;;;;;;;;;;5086801;28;20031;-72
2021/06/28 11:53:50;;;;;;;1.92;1.70;;;;;;;;;;5087232;28;20052;-74
2021/06/28 11:56:39;;;;;;;4.65;1.60;;;;;;;;;;5084437;28;20039;-73
2021/06/28 11:59:11;;;;;;;6.28;1.83;;;;;;;;;;5082634;28;20509;-73
2021/06/28 12:01:52;;;;;;;4.85;2.20;;;;;;;;;;5092670;28;20020;-72
2021/06/28 12:04:31;;;;;;;5.40;2.20;;;;;;;;;;5093526;28;20028;-74
2021/06/28 12:06:57;;;;;;;3.05;2.20;;;;;;;;;;5092602;28;20032;-73
2021/06/28 12:09:48;;;;;;;3.33;2.17;;;;;;;;;;5076148;28;20075;-72
2021/06/28 12:12:16;;;;;;;2.67;2.28;;;;;;;;;;5091494;28;20051;-72
2021/06/28 12:14:52;;;;;;;3.08;2.30;;;;;;;;;;5085589;28;20192;-72
2021/06/28 12:17:27;;;;;;;3.45;2.10;;;;;;;;;;5090557;28;20033;-73
2021/06/28 12:20:03;;;;;;;3.47;2.28;;;;;;;;;;5073805;28;20060;-74
2021/06/28 12:22:33;;;;;;;2.92;2.10;;;;;;;;;;5091692;28;20448;-74
2021/06/28 12:25:07;;;;;;;4.35;2.40;;;;;;;;;;5073998;28;20036;-71
2021/06/28 12:27:39;;;;;;;3.20;2.60;;;;;;;;;;5093068;28;20043;-72
2021/06/28 12:30:10;;;;;;;3.33;2.30;;;;;;;;;;5074499;28;20031;-72
2021/06/28 12:32:59;;;;;;;4.55;2.40;;;;;;;;;;5092510;28;20073;-72
2021/06/28 12:35:30;;;;;;;2.75;2.33;;;;;;;;;;5076326;28;20040;-72
2021/06/28 12:38:03;;;;;;;3.15;2.40;;;;;;;;;;5073317;28;20024;-74
2021/06/28 12:40:35;;;;;;;2.60;2.25;;;;;;;;;;5087696;28;20036;-72
2021/06/28 12:43:03;;;;;;;2.50;2.25;;;;;;;;;;5092912;28;20035;-73
2021/06/28 12:45:35;;;;;;;2.78;2.50;;;;;;;;;;5094065;28;20115;-73
2021/06/28 12:48:02;;;;;;;4.73;2.60;;;;;;;;;;5084280;28;20074;-73
2021/06/28 12:50:31;;;;;;;3.17;2.30;;;;;;;;;;5073977;28;20527;-73
2021/06/28 12:52:56;;;;;;;3.72;2.50;;;;;;;;;;5078565;28;20106;-73
2021/06/28 12:55:24;;;;;;;3.40;2.85;;;;;;;;;;5067413;28;20534;-72
2021/06/28 12:58:12;;;;;;;3.60;2.75;;;;;;;;;;5083119;28;20032;-73
2021/06/28 13:00:58;;;;;;;2.60;2.40;;;;;;;;;;5089761;28;20028;-73
2021/06/28 13:03:29;;;;;;;2.50;2.15;;;;;;;;;;5073477;28;20492;-72
2021/06/28 13:05:59;;;;;;;2.47;1.90;;;;;;;;;;5086275;28;20028;-74
2021/06/28 13:08:36;;;;;;;4.18;2.00;;;;;;;;;;5079952;28;20035;-75
2021/06/28 13:11:08;;;;;;;2.25;2.05;;;;;;;;;;5092420;28;20671;-74
2021/06/28 13:16:32;;;;;;;2.92;2.53;;;;;;;;;;5078295;28;20038;-72
2021/06/28 13:19:14;;;;;;;3.20;2.60;;;;;;;;;;5077619;28;20467;-73
2021/06/28 13:21:42;;;;;;;3.58;3.00;;;;;;;;;;5072694;28;20019;-73
2021/06/28 13:24:14;;;;;;;6.95;2.88;;;;;;;;;;5072837;28;20020;-72
2021/06/28 13:26:40;;;;;;;3.70;2.92;;;;;;;;;;5072802;28;20040;-72
2021/06/28 13:29:30;;;;;;;3.97;2.97;;;;;;;;;;5080613;28;20027;-72
2021/06/28 13:32:09;;;;;;;4.05;3.33;;;;;;;;;;5092259;28;20447;-73
2021/06/28 13:34:37;;;;;;;5.25;3.35;;;;;;;;;;5072329;28;20026;-72
2021/06/28 13:37:14;;;;;;;6.88;3.10;;;;;;;;;;5087784;28;20085;-73
2021/06/28 13:40:16;;;;;;;4.97;2.80;;;;;;;;;;5092533;28;20020;-73
2021/06/28 13:42:52;;;;;;;3.58;2.92;;;;;;;;;;5095127;28;20028;-72
2021/06/28 13:45:19;;;;;;;3.78;2.70;;;;;;;;;;5079286;28;20103;-72
2021/06/28 13:48:25;;;;;;;4.28;2.40;;;;;;;;;;5084595;28;20428;-72
2021/06/28 13:50:50;;;;;;;4.78;2.67;;;;;;;;;;5085483;28;20033;-72
2021/06/28 13:53:45;;;;;;;3.33;2.55;;;;;;;;;;5067651;28;20340;-72
2021/06/28 13:56:10;;;;;;;4.00;2.95;;;;;;;;;;5072378;28;20380;-73
2021/06/28 13:58:36;;;;;;;4.65;3.10;;;;;;;;;;5074189;28;20025;-73
2021/06/28 14:01:03;;;;;;;7.35;3.20;;;;;;;;;;5088917;28;20055;-74
2021/06/28 14:03:28;;;;;;;3.92;2.63;;;;;;;;;;5095729;28;20352;-73
2021/06/28 14:05:53;;;;;;;3.17;2.63;;;;;;;;;;5095781;28;20039;-74
2021/06/28 14:08:21;;;;;;;3.17;2.67;;;;;;;;;;5095791;28;20507;-73
2021/06/28 14:10:52;;;;;;;3.22;2.72;;;;;;;;;;5091984;28;20456;-75
2021/06/28 14:13:22;;;;;;;4.85;3.00;;;;;;;;;;5075240;28;20039;-76
2021/06/28 14:15:47;;;;;;;3.83;2.63;;;;;;;;;;5068260;28;20534;-74
2021/06/28 14:18:13;;;;;;;3.55;2.97;;;;;;;;;;5075230;28;20063;-75
2021/06/28 14:20:41;;;;;;;4.18;2.67;;;;;;;;;;5075109;28;20226;-75
2021/06/28 14:23:06;;;;;;;4.47;2.90;;;;;;;;;;5078967;28;20069;-75
2021/06/28 14:25:33;;;;;;;3.22;2.75;;;;;;;;;;5080171;28;20128;-75
2021/06/28 14:27:58;;;;;;;4.05;2.70;;;;;;;;;;5075239;28;20020;-75
2021/06/28 14:30:25;;;;;;;2.75;2.35;;;;;;;;;;5090800;28;20038;-76
2021/06/28 14:32:57;;;;;;;3.88;2.65;;;;;;;;;;5088630;28;20028;-76
2021/06/28 14:35:22;;;;;;;4.38;2.58;;;;;;;;;;5085487;28;20046;-75
2021/06/28 14:38:05;;;;;;;3.67;1.80;;;;;;;;;;5079819;28;20103;-74
2021/06/28 14:40:32;;;;;;;1.90;1.73;;;;;;;;;;5092986;28;20051;-75
2021/06/28 14:43:17;;;;;;;2.28;2.00;;;;;;;;;;5075337;28;20473;-74
2021/06/28 14:45:42;;;;;;;3.00;2.70;;;;;;;;;;5075411;28;20040;-76
2021/06/28 14:48:10;;;;;;;3.17;2.72;;;;;;;;;;5088265;28;20036;-73
2021/06/28 14:50:37;;;;;;;4.47;2.75;;;;;;;;;;5086145;28;20066;-73
2021/06/28 14:53:02;;;;;;;4.38;2.72;;;;;;;;;;5092468;28;20429;-73
2021/06/28 14:55:28;;;;;;;4.13;2.80;;;;;;;;;;5092146;28;20119;-73
2021/06/28 14:57:54;;;;;;;15.30;3.05;;;;;;;;;;5090475;28;20101;-72
2021/06/28 15:00:19;;;;;;;4.60;3.08;;;;;;;;;;5084382;28;20046;-71
2021/06/28 15:02:45;;;;;;;4.55;2.83;;;;;;;;;;5078135;28;20421;-71
2021/06/28 15:05:11;;;;;;;3.58;2.90;;;;;;;;;;5076618;28;20044;-72
2021/06/28 15:07:37;;;;;;;7.53;3.03;;;;;;;;;;5081254;28;20422;-72